Flight Track Log - Related Links

Times and Time Zones

All times are in EDT time to prevent confusion due to time zone crossing. See the NKS451 flight status page for this flight to view local times or setup timezone preferences in your user account.

Time Position Orientation Groundspeed Altitude Reporting Facility
EDT Latitude Longitude Course Direction KTS MPH feet Rate Location/Type
Tue 02:33:17 AM 44.5240 -73.4520 198° South 268 308 5,900  Level FlightAware ADS-B
Tue 02:33:32 AM 44.5020 -73.4630 200° South 271 312 7,000 4,286 Climbing FlightAware ADS-B
Tue 02:33:52 AM 44.4780 -73.4750 200° South 274 315 8,400 3,900 Climbing FlightAware ADS-B
Tue 02:34:12 AM 44.4550 -73.4870 200° South 275 316 9,600 2,727 Climbing FlightAware ADS-B
Tue 02:34:47 AM 44.4110 -73.5080 199° South 308 354 10,900 2,240 Climbing FlightAware ADS-B
Tue 02:35:27 AM 44.3530 -73.5370 200° South 340 391 12,400 2,400 Climbing FlightAware ADS-B
Tue 02:35:57 AM 44.3090 -73.5600 201° Southwest 345 397 13,700 2,829 Climbing FlightAware ADS-B
Tue 02:36:37 AM 44.2440 -73.5880 197° South 356 410 15,700 2,743 Climbing FlightAware ADS-B
Tue 02:37:07 AM 44.1920 -73.5960 186° South 371 427 16,900 2,215 Climbing FlightAware ADS-B
Tue 02:37:42 AM 44.1320 -73.6040 185° South 375 432 18,100 2,057 Climbing FlightAware ADS-B
Tue 02:38:17 AM 44.0690 -73.6140 187° South 391 450 19,300 1,886 Climbing FlightAware ADS-B
Tue 02:38:52 AM 44.0050 -73.6230 186° South 401 461 20,300 1,886 Climbing FlightAware ADS-B
Tue 02:39:27 AM 43.9400 -73.6320 186° South 405 466 21,500 1,775 Climbing FlightAware ADS-B
Tue 02:40:03 AM 43.8710 -73.6420 186° South 418 481 22,400 1,562 Climbing FlightAware ADS-B
Tue 02:40:40 AM 43.8000 -73.6530 186° South 433 498 23,400 1,500 Climbing FlightAware ADS-B
Tue 02:41:15 AM 43.7310 -73.6630 186° South 435 501 24,200 1,457 Climbing FlightAware ADS-B
Tue 02:41:50 AM 43.6550 -73.6740 186° South 439 505 25,100 1,629 Climbing FlightAware ADS-B
Tue 02:42:25 AM 43.5820 -73.6840 186° South 456 525 26,100 1,034 Climbing FlightAware ADS-B
Tue 02:43:17 AM 43.4870 -73.6980 186° South 452 520 26,600 1,390 Climbing FlightAware ADS-B
Tue 02:43:47 AM 43.4120 -73.7090 186° South 469 540 28,000 2,063 Climbing FlightAware ADS-B
Tue 02:44:21 AM 43.3430 -73.7180 185° South 476 548 28,800 1,280 Climbing FlightAware ADS-B
Tue 02:45:02 AM 43.2430 -73.7330 186° South 484 557 29,600 1,167 Climbing FlightAware ADS-B
Tue 02:45:33 AM 43.1760 -73.7420 186° South 489 563 30,200 1,108 Climbing FlightAware ADS-B
Tue 02:46:07 AM 43.0960 -73.7540 186° South 497 572 30,800 943 Climbing FlightAware ADS-B
Tue 02:46:43 AM 43.0170 -73.7650 186° South 504 580 31,300 1,029 Climbing FlightAware ADS-B
Tue 02:47:17 AM 42.9380 -73.7760 186° South 509 586 32,000 1,304 Climbing FlightAware ADS-B
Tue 02:47:52 AM 42.8530 -73.7880 186° South 509 586 32,800 1,437 Climbing FlightAware ADS-B
Tue 02:48:28 AM 42.7710 -73.8010 187° South 504 580 33,700 1,543 Climbing FlightAware ADS-B
Tue 02:49:02 AM 42.6930 -73.8250 193° South 495 570 34,600 1,457 Climbing FlightAware ADS-B
Tue 02:49:38 AM 42.6180 -73.8550 196° South 492 566 35,400 1,333 Climbing FlightAware ADS-B
Tue 02:50:14 AM 42.5350 -73.8880 196° South 489 563 36,200 1,183 Climbing FlightAware ADS-B
Tue 02:50:49 AM 42.4590 -73.9180 196° South 491 565 36,800 1,099 Climbing FlightAware ADS-B
Tue 02:51:25 AM 42.3780 -73.9500 196° South 492 566 37,500 1,029 Climbing FlightAware ADS-B
Tue 02:51:59 AM 42.3060 -73.9780 196° South 491 565 38,000 441 Climbing FlightAware ADS-B
Tue 02:52:33 AM 42.2310 -74.0080 196° South 487 560 38,000  Level FlightAware ADS-B
Tue 02:53:11 AM 42.1500 -74.0400 196° South 488 562 38,000  Level FlightAware ADS-B
Tue 02:53:46 AM 42.0710 -74.0710 196° South 490 564 38,000  Level FlightAware ADS-B
Tue 02:54:20 AM 41.9960 -74.1010 197° South 492 566 38,000  Level FlightAware ADS-B
Tue 02:54:55 AM 41.9210 -74.1300 196° South 494 568 38,000  Level FlightAware ADS-B
Tue 02:55:27 AM 41.8490 -74.1580 196° South 494 568 38,000  Level FlightAware ADS-B
Tue 02:56:04 AM 41.7670 -74.1900 196° South 494 568 38,000  Level FlightAware ADS-B
Tue 02:56:42 AM 41.6850 -74.2210 196° South 494 568 38,000  Level FlightAware ADS-B
Tue 02:57:13 AM 41.6180 -74.2500 198° South 492 566 38,000  Level FlightAware ADS-B
Tue 02:57:50 AM 41.5380 -74.2900 201° Southwest 493 567 38,000  Level FlightAware ADS-B
Tue 02:58:25 AM 41.4640 -74.3260 200° South 496 571 38,000  Level FlightAware ADS-B
Tue 02:59:02 AM 41.3820 -74.3650 200° South 496 571 38,000  Level FlightAware ADS-B
Tue 02:59:33 AM 41.3160 -74.3960 199° South 495 570 38,000  Level FlightAware ADS-B
Tue 03:00:10 AM 41.2370 -74.4330 199° South 495 570 38,000  Level FlightAware ADS-B
Tue 03:00:46 AM 41.1600 -74.4690 199° South 495 570 38,000  Level FlightAware ADS-B
Tue 03:01:19 AM 41.0900 -74.5020 200° South 495 570 38,000  Level FlightAware ADS-B
Tue 03:01:56 AM 41.0080 -74.5410 200° South 494 568 38,000  Level FlightAware ADS-B
Tue 03:02:32 AM 40.9310 -74.5770 199° South 493 567 38,000  Level FlightAware ADS-B
Tue 03:03:03 AM 40.8640 -74.6070 199° South 492 566 38,000  Level FlightAware ADS-B
Tue 03:03:37 AM 40.7910 -74.6410 199° South 490 564 38,000  Level FlightAware ADS-B
Tue 03:04:15 AM 40.7120 -74.6780 200° South 488 562 38,000  Level FlightAware ADS-B
Tue 03:04:51 AM 40.6330 -74.7140 199° South 487 560 38,000  Level FlightAware ADS-B
Tue 03:05:25 AM 40.5600 -74.7480 199° South 487 560 38,000  Level FlightAware ADS-B
Tue 03:05:58 AM 40.4910 -74.7800 199° South 487 560 38,000  Level FlightAware ADS-B
Tue 03:06:35 AM 40.4120 -74.8160 199° South 486 559 38,000  Level FlightAware ADS-B
Tue 03:07:11 AM 40.3370 -74.8500 199° South 484 557 38,000  Level FlightAware ADS-B
Tue 03:07:46 AM 40.2620 -74.8850 200° South 483 556 38,000  Level FlightAware ADS-B
Tue 03:08:19 AM 40.1920 -74.9160 199° South 484 557 38,000  Level FlightAware ADS-B
Tue 03:08:54 AM 40.1180 -74.9500 199° South 484 557 38,000  Level FlightAware ADS-B
Tue 03:09:30 AM 40.0420 -74.9850 199° South 485 558 38,000  Level FlightAware ADS-B
Tue 03:10:06 AM 39.9680 -75.0180 199° South 484 557 38,000  Level FlightAware ADS-B
Tue 03:10:38 AM 39.8990 -75.0490 199° South 485 558 38,000  Level FlightAware ADS-B
Tue 03:11:10 AM 39.8320 -75.0790 199° South 484 557 38,000  Level FlightAware ADS-B
Tue 03:11:56 AM 39.7670 -75.1080 199° South 485 558 38,000  Level FlightAware ADS-B
Tue 03:12:29 AM 39.6670 -75.1530 199° South 484 557 38,000  Level FlightAware ADS-B
Tue 03:13:04 AM 39.5900 -75.1880 199° South 483 556 38,000  Level FlightAware ADS-B
Tue 03:13:39 AM 39.5200 -75.2190 199° South 484 557 38,000  Level FlightAware ADS-B
Tue 03:14:15 AM 39.4430 -75.2530 199° South 486 559 38,000  Level FlightAware ADS-B
Tue 03:14:49 AM 39.3720 -75.2850 199° South 488 562 38,000  Level FlightAware ADS-B
Tue 03:15:34 AM 39.2790 -75.3260 199° South 489 563 38,000  Level FlightAware ADS-B
Tue 03:16:09 AM 39.2050 -75.3580 199° South 488 562 38,000  Level FlightAware ADS-B
Tue 03:16:49 AM 39.1140 -75.3980 199° South 488 562 38,000  Level FlightAware ADS-B
Tue 03:17:23 AM 39.0380 -75.4320 199° South 488 562 38,000  Level FlightAware ADS-B
Tue 03:18:00 AM 38.9610 -75.4660 199° South 488 562 38,000  Level FlightAware ADS-B
Tue 03:18:37 AM 38.8810 -75.5010 199° South 488 562 38,000  Level FlightAware ADS-B
Tue 03:19:09 AM 38.8100 -75.5320 199° South 487 560 38,000  Level FlightAware ADS-B
Tue 03:19:43 AM 38.7390 -75.5630 199° South 487 560 38,000  Level FlightAware ADS-B
Tue 03:20:20 AM 38.6580 -75.5980 199° South 488 562 38,000  Level FlightAware ADS-B
Tue 03:20:58 AM 38.5790 -75.6320 199° South 489 563 38,000  Level FlightAware ADS-B
Tue 03:21:26 AM 38.5180 -75.6580 198° South 491 565 38,000  Level FlightAware ADS-B
Tue 03:21:58 AM 38.4480 -75.6890 199° South 492 566 38,000  Level FlightAware ADS-B
Tue 03:22:34 AM 38.3710 -75.7220 199° South 492 566 38,000  Level FlightAware ADS-B
Tue 03:23:10 AM 38.2930 -75.7550 198° South 490 564 38,000  Level FlightAware ADS-B
Tue 03:23:46 AM 38.2170 -75.7880 199° South 489 563 38,000  Level FlightAware ADS-B
Tue 03:24:22 AM 38.1390 -75.8210 198° South 489 563 38,000  Level FlightAware ADS-B
Tue 03:24:54 AM 38.0730 -75.8490 198° South 488 562 38,000  Level FlightAware ADS-B
Tue 03:25:30 AM 37.9920 -75.8840 199° South 488 562 38,000  Level FlightAware ADS-B
Tue 03:26:06 AM 37.9160 -75.9160 198° South 488 562 38,000  Level FlightAware ADS-B
Tue 03:26:40 AM 37.8440 -75.9470 199° South 487 560 38,000  Level FlightAware ADS-B
Tue 03:27:16 AM 37.7680 -75.9790 198° South 486 559 38,000  Level FlightAware ADS-B
Tue 03:27:52 AM 37.6890 -76.0120 198° South 485 558 38,000  Level FlightAware ADS-B
Tue 03:28:24 AM 37.6260 -76.0390 199° South 485 558 38,000  Level FlightAware ADS-B
Tue 03:29:01 AM 37.5440 -76.0730 198° South 484 557 38,000  Level FlightAware ADS-B
Tue 03:29:38 AM 37.4670 -76.1060 199° South 484 557 38,000  Level FlightAware ADS-B
Tue 03:30:13 AM 37.3900 -76.1380 198° South 484 557 38,000  Level FlightAware ADS-B
Tue 03:30:44 AM 37.3260 -76.1650 199° South 484 557 38,000  Level FlightAware ADS-B
Tue 03:31:21 AM 37.2460 -76.1980 198° South 485 558 38,000  Level FlightAware ADS-B
Tue 03:31:56 AM 37.1730 -76.2280 198° South 485 558 38,000  Level FlightAware ADS-B
Tue 03:32:26 AM 37.1100 -76.2550 199° South 485 558 38,000  Level FlightAware ADS-B
Tue 03:33:05 AM 37.0280 -76.2890 198° South 478 550 38,000  Level FlightAware ADS-B
Tue 03:33:39 AM 36.9610 -76.3160 198° South 478 550 38,000  Level FlightAware ADS-B
Tue 03:34:14 AM 36.8830 -76.3480 198° South 478 550 38,000  Level FlightAware ADS-B
Tue 03:34:49 AM 36.8080 -76.3790 198° South 477 549 38,000  Level FlightAware ADS-B
Tue 03:35:19 AM 36.7440 -76.4050 198° South 475 547 38,000  Level FlightAware ADS-B
Tue 03:36:00 AM 36.6540 -76.4420 198° South 475 547 38,000  Level FlightAware ADS-B
Tue 03:36:37 AM 36.5770 -76.4740 198° South 474 545 38,000  Level FlightAware ADS-B
Tue 03:37:07 AM 36.5120 -76.5000 198° South 475 547 38,000  Level FlightAware ADS-B
Tue 03:37:42 AM 36.4380 -76.5310 199° South 477 549 38,000  Level FlightAware ADS-B
Tue 03:38:22 AM 36.3510 -76.5660 198° South 477 549 38,000  Level FlightAware ADS-B
Tue 03:38:57 AM 36.2780 -76.5960 198° South 478 550 38,000  Level FlightAware ADS-B
Tue 03:39:27 AM 36.2130 -76.6220 198° South 478 550 38,000  Level FlightAware ADS-B
Tue 03:40:02 AM 36.1400 -76.6520 198° South 487 560 38,000  Level FlightAware ADS-B
Tue 03:40:42 AM 36.0520 -76.6870 198° South 487 560 38,000  Level FlightAware ADS-B
Tue 03:41:12 AM 35.9890 -76.7120 198° South 487 560 38,000  Level FlightAware ADS-B
Tue 03:41:47 AM 35.9120 -76.7430 198° South 487 560 38,000  Level FlightAware ADS-B
Tue 03:42:21 AM 35.8730 -76.7590 198° South 488 562 38,000  Level FlightAware ADS-B
Tue 03:43:15 AM 35.7430 -76.8110 198° South 488 562 38,000  Level FlightAware ADS-B
Tue 03:43:57 AM 35.6470 -76.8490 198° South 489 563 38,000  Level FlightAware ADS-B
Tue 03:44:33 AM 35.5810 -76.8760 198° South 489 563 38,000  Level FlightAware ADS-B
Tue 03:45:10 AM 35.5140 -76.9030 198° South 489 563 38,000  Level FlightAware ADS-B
Tue 03:45:46 AM 35.4480 -76.9290 198° South 489 563 38,000  Level FlightAware ADS-B
Tue 03:46:22 AM 35.3820 -76.9550 198° South 489 563 38,000  Level FlightAware ADS-B
Tue 03:46:58 AM 35.3160 -76.9820 198° South 489 563 38,000  Level FlightAware ADS-B
Tue 03:47:41 AM 35.1590 -77.0430 198° South 487 560 38,000  Level FlightAware ADS-B
Tue 03:48:17 AM 35.0830 -77.0720 197° South 486 559 38,000  Level FlightAware ADS-B
Tue 03:48:53 AM 35.0010 -77.1050 198° South 484 557 38,000  Level FlightAware ADS-B
Tue 03:49:23 AM 34.9420 -77.1280 198° South 483 556 38,000  Level FlightAware ADS-B
Tue 03:49:59 AM 34.8590 -77.1600 198° South 482 555 38,000  Level FlightAware ADS-B
Tue 03:50:35 AM 34.7840 -77.1900 198° South 483 556 38,000  Level FlightAware ADS-B
Tue 03:51:18 AM 34.7050 -77.2210 198° South 482 555 38,000  Level FlightAware ADS-B
Tue 03:51:49 AM 34.6250 -77.2520 198° South 484 557 38,000  Level FlightAware ADS-B
Tue 03:52:25 AM 34.5520 -77.2800 198° South 484 557 38,000  Level FlightAware ADS-B
Tue 03:53:17 AM 34.4390 -77.3240 198° South 486 559 38,000  Level FlightAware ADS-B
Tue 03:53:53 AM 34.3730 -77.3490 197° South 485 558 38,000  Level FlightAware ADS-B
Tue 03:54:44 AM 34.2650 -77.3910 198° South 484 557 38,000  Level FlightAware ADS-B
Tue 03:55:23 AM 34.1690 -77.4280 198° South 483 556 38,000  Level FlightAware ADS-B
Tue 03:55:56 AM 34.1100 -77.4510 198° South 483 556 38,000  Level FlightAware ADS-B
Tue 03:56:33 AM 34.0200 -77.4850 197° South 479 551 38,000  Level FlightAware ADS-B
Tue 03:57:13 AM 33.9370 -77.5170 198° South 477 549 38,000  Level FlightAware ADS-B
Tue 03:58:07 AM 33.8260 -77.5590 197° South 473 544 38,000  Level FlightAware ADS-B
Tue 03:58:47 AM 33.7390 -77.5900 197° South 473 544 38,000  Level FlightAware ADS-B
Tue 03:59:22 AM 33.6630 -77.6180 197° South 474 545 38,000  Level FlightAware ADS-B
Tue 04:00:10 AM 33.5830 -77.6460 196° South 474 545 38,000  Level FlightAware ADS-B
Tue 04:00:46 AM 33.5180 -77.6680 196° South 474 545 38,000  Level FlightAware ADS-B
Tue 04:01:22 AM 33.4540 -77.6900 196° South 474 545 38,000  Level FlightAware ADS-B
Tue 04:01:58 AM 33.3890 -77.7120 196° South 474 545 38,000  Level FlightAware ADS-B
Tue 04:02:34 AM 33.3250 -77.7340 196° South 474 545 38,000  Level FlightAware ADS-B
Tue 04:02:55 AM 33.6330 -77.6280 16° North 38,000  Level FlightAware ADS-B
Tue 04:04:10 AM 33.0560 -77.8360 197° South 478 550 38,000  Level FlightAware ADS-B
Tue 04:04:51 AM 32.9720 -77.8660 197° South 478 550 38,000  Level FlightAware ADS-B
Tue 04:05:29 AM 32.9030 -77.8900 196° South 478 550 38,000  Level FlightAware ADS-B
Tue 04:06:05 AM 32.8380 -77.9120 196° South 478 550 38,000  Level FlightAware ADS-B
Tue 04:06:41 AM 32.7330 -77.9510 197° South 481 554 38,000  Level FlightAware ADS-B
Tue 04:07:16 AM 32.6620 -77.9760 197° South 480 552 38,000  Level FlightAware ADS-B
Tue 04:07:51 AM 32.5880 -78.0020 196° South 480 552 38,000  Level FlightAware ADS-B
Tue 04:08:48 AM 32.4740 -78.0420 196° South 479 551 38,000  Level FlightAware ADS-B
Tue 04:09:24 AM 32.4090 -78.0640 196° South 479 551 38,000 -91 Level FlightAware ADS-B
Tue 04:09:50 AM 32.5230 -78.0260 16° North 38,000 -200 Level FlightAware ADS-B
Tue 04:09:54 AM 32.3361 -78.0861 196° South 475 547 37,900 -94 Descending Jacksonville Center
Tue 04:10:21 AM 32.2670 -78.1150 196° South 38,000  Climbing FlightAware ADS-B
Tue 04:10:54 AM 32.2086 -78.1344 198° South 475 547 37,900  Descending Jacksonville Center
Tue 04:14:00 AM 31.8341 -78.2662 197° South  Level Estimated
Tue 04:15:00 AM 31.7155 -78.3074 196° South  Level Estimated
Tue 04:16:20 AM 31.5030 -78.3820 198° South 480 552 38,000  Level FlightAware ADS-B
Tue 04:16:57 AM 31.4360 -78.4040 196° South 480 552 38,000  Level FlightAware ADS-B
Tue 04:17:33 AM 31.3700 -78.4260 196° South 480 552 38,000  Level FlightAware ADS-B
Tue 04:18:09 AM 31.3050 -78.4480 196° South 480 552 38,000  Level FlightAware ADS-B
Tue 04:18:45 AM 31.2400 -78.4700 196° South 480 552 38,000  Level FlightAware ADS-B
Tue 04:19:22 AM 31.1720 -78.4920 195° South 480 552 38,000  Level FlightAware ADS-B
Tue 04:19:58 AM 31.1070 -78.5140 196° South 480 552 38,000  Level FlightAware ADS-B
Tue 04:20:32 AM 31.0450 -78.5350 196° South 480 552 38,000  Level FlightAware ADS-B
Tue 04:21:18 AM 30.9620 -78.5630 196° South 480 552 38,000  Level FlightAware ADS-B
Tue 04:21:55 AM 30.8950 -78.5850 196° South 480 552 38,000  Level FlightAware ADS-B
Tue 04:22:31 AM 30.8290 -78.6070 196° South 480 552 38,000  Level FlightAware ADS-B
Tue 04:23:08 AM 30.7620 -78.6300 196° South 480 552 38,000  Level FlightAware ADS-B
Tue 04:23:44 AM 30.6970 -78.6510 196° South 480 552 38,000  Level FlightAware ADS-B
Tue 04:24:20 AM 30.6320 -78.6730 196° South 480 552 38,000  Level FlightAware ADS-B
Tue 04:24:56 AM 30.5660 -78.6950 196° South 480 552 38,000  Level FlightAware ADS-B
Tue 04:25:32 AM 30.5010 -78.7170 196° South 480 552 38,000  Level FlightAware ADS-B
Tue 04:26:08 AM 30.4360 -78.7380 196° South 480 552 38,000  Level FlightAware ADS-B
Tue 04:26:39 AM 30.1708 -78.8353 196° South 491 565 38,000 -65 Level Miami Center
Tue 04:27:40 AM 30.0389 -78.8783 196° South 491 565 37,900  Descending Miami Center
Tue 04:28:40 AM 29.9153 -78.9239 198° South 480 552 38,000 50 Climbing Miami Center
Tue 04:29:39 AM 29.7894 -78.9717 198° South 480 552 38,000  Level Miami Center
Tue 04:30:42 AM 29.6614 -79.0169 197° South 486 559 38,000  Level Miami Center
Tue 04:31:39 AM 29.5253 -79.0525 193° South 486 559 38,000  Level Miami Center
Tue 04:36:48 AM 28.8620 -79.2670 193° South 479 551 38,000  Level FlightAware ADS-B
Tue 04:37:22 AM 28.7930 -79.2890 196° South 478 550 38,000  Level FlightAware ADS-B
Tue 04:37:57 AM 28.7240 -79.3120 196° South 470 541 38,000  Level FlightAware ADS-B
Tue 04:38:31 AM 28.6410 -79.3390 196° South 478 550 38,000  Level FlightAware ADS-B
Tue 04:39:07 AM 28.5680 -79.3620 195° South 470 541 38,000  Level FlightAware ADS-B
Tue 04:39:51 AM 28.4740 -79.3930 196° South 469 540 38,000  Level FlightAware ADS-B
Tue 04:40:22 AM 28.4100 -79.4140 196° South 468 539 38,000  Level FlightAware ADS-B
Tue 04:40:59 AM 28.3290 -79.4400 196° South 474 545 38,000 -320 Level FlightAware ADS-B
Tue 04:41:37 AM 28.2510 -79.4650 196° South 465 535 37,600 -806 Descending FlightAware ADS-B
Tue 04:42:06 AM 28.1890 -79.4850 196° South 468 539 37,100 -1,000 Descending FlightAware ADS-B
Tue 04:42:43 AM 28.1120 -79.5100 196° South 470 541 36,500 -1,600 Descending FlightAware ADS-B
Tue 04:43:21 AM 28.0290 -79.5360 195° South 483 556 35,100 -2,471 Descending FlightAware ADS-B
Tue 04:43:51 AM 27.9610 -79.5580 196° South 487 560 33,700 -2,657 Descending FlightAware ADS-B
Tue 04:44:31 AM 27.8760 -79.5850 196° South 482 555 32,000 -2,366 Descending FlightAware ADS-B
Tue 04:45:02 AM 27.8100 -79.6060 196° South 485 558 30,900 -2,229 Descending FlightAware ADS-B
Tue 04:45:41 AM 27.7250 -79.6330 196° South 471 542 29,400 -2,314 Descending FlightAware ADS-B
Tue 04:46:12 AM 27.6600 -79.6540 196° South 466 536 28,200 -2,273 Descending FlightAware ADS-B
Tue 04:46:47 AM 27.5850 -79.6780 196° South 467 537 26,900 -2,197 Descending FlightAware ADS-B
Tue 04:47:23 AM 27.5150 -79.7000 196° South 448 516 25,600 -2,270 Descending FlightAware ADS-B
Tue 04:48:01 AM 27.4350 -79.7250 196° South 437 503 24,100 -2,261 Descending FlightAware ADS-B
Tue 04:48:32 AM 27.3770 -79.7440 196° South 436 502 23,000 -2,182 Descending FlightAware ADS-B
Tue 04:49:07 AM 27.3100 -79.7650 196° South 419 482 21,700 -2,282 Descending FlightAware ADS-B
Tue 04:49:43 AM 27.2390 -79.7870 195° South 415 478 20,300 -2,219 Descending FlightAware ADS-B
Tue 04:50:20 AM 27.1710 -79.8090 196° South 406 467 19,000 -2,219 Descending FlightAware ADS-B
Tue 04:50:56 AM 27.1050 -79.8300 196° South 396 456 17,600 -2,167 Descending FlightAware ADS-B
Tue 04:51:32 AM 27.0410 -79.8500 196° South 384 442 16,400 -1,970 Descending FlightAware ADS-B
Tue 04:52:03 AM 26.9920 -79.8650 195° South 375 432 15,400 -1,970 Descending FlightAware ADS-B
Tue 04:52:39 AM 26.9320 -79.8840 196° South 363 418 14,200 -2,000 Descending FlightAware ADS-B
Tue 04:53:15 AM 26.8740 -79.9020 195° South 353 406 13,000 -1,583 Descending FlightAware ADS-B
Tue 04:53:51 AM 26.8200 -79.9190 196° South 324 373 12,300 -1,588 Descending FlightAware ADS-B
Tue 04:54:23 AM 26.7740 -79.9340 196° South 304 350 11,200 -2,226 Descending FlightAware ADS-B
Tue 04:54:53 AM 26.7350 -79.9460 195° South 299 344 10,000 -2,449 Descending FlightAware ADS-B
Tue 04:55:12 AM 26.7080 -79.9550 197° South 300 345 9,200 -2,000 Descending FlightAware ADS-B
Tue 04:55:29 AM 26.6860 -79.9620 196° South 300 345 8,800 -1,371 Descending FlightAware ADS-B
Tue 04:55:47 AM 26.6630 -79.9690 195° South 296 341 8,400 -1,231 Descending FlightAware ADS-B
Tue 04:56:08 AM 26.6340 -79.9780 196° South 289 333 8,000 -789 Descending FlightAware ADS-B
Tue 04:56:25 AM 26.6130 -79.9840 194° South 296 341 7,900 -162 Descending FlightAware ADS-B
Tue 04:56:45 AM 26.5850 -79.9930 196° South 296 341 7,900 150 Level FlightAware ADS-B
Tue 04:57:05 AM 26.5590 -80.0010 195° South 295 339 8,000 136 Climbing FlightAware ADS-B
Tue 04:57:29 AM 26.5270 -80.0110 196° South 296 341 8,000 -167 Level FlightAware ADS-B
Tue 04:57:41 AM 26.5120 -80.0160 197° South 298 343 7,900 -333 Descending FlightAware ADS-B
Tue 04:57:47 AM 26.5040 -80.0190 199° South 299 344 7,900 375 Level FlightAware ADS-B
Tue 04:57:57 AM 26.4910 -80.0270 209° Southwest 298 343 8,000 200 Climbing FlightAware ADS-B
Tue 04:58:17 AM 26.4700 -80.0440 216° Southwest 296 341 8,000 -150 Level FlightAware ADS-B
Tue 04:58:37 AM 26.4470 -80.0620 215° Southwest 293 337 7,900 -1,000 Descending FlightAware ADS-B
Tue 04:58:53 AM 26.4300 -80.0760 216° Southwest 286 329 7,400 -2,229 Descending FlightAware ADS-B
Tue 04:59:12 AM 26.4090 -80.0930 216° Southwest 288 331 6,600 -2,550 Descending FlightAware ADS-B
Tue 04:59:33 AM 26.3870 -80.1110 216° Southwest 287 330 5,700 -2,488 Descending FlightAware ADS-B
Tue 04:59:53 AM 26.3650 -80.1290 216° Southwest 287 330 4,900 -2,318 Descending FlightAware ADS-B
Tue 05:00:17 AM 26.3390 -80.1500 216° Southwest 284 327 4,000 -2,294 Descending FlightAware ADS-B
Tue 05:00:27 AM 26.3300 -80.1580 219° Southwest 283 326 3,600 -1,688 Descending FlightAware ADS-B
Tue 05:00:49 AM 26.3070 -80.1770 217° Southwest 274 315 3,100 -933 Descending FlightAware ADS-B
Tue 05:01:12 AM 26.2830 -80.1970 217° Southwest 257 296 2,900 -231 Descending FlightAware ADS-B
Tue 05:01:41 AM 26.2580 -80.2180 217° Southwest 238 274 2,900 -375 Level FlightAware ADS-B
Tue 05:02:00 AM 26.2430 -80.2310 218° Southwest 229 264 2,600 -1,135 Descending FlightAware ADS-B
Tue 05:02:18 AM 26.2270 -80.2450 218° Southwest 229 264 2,200 -1,077 Descending FlightAware ADS-B
Tue 05:02:39 AM 26.2080 -80.2590 213° Southwest 222 255 1,900 -774 Descending FlightAware ADS-B
Tue 05:02:49 AM 26.1980 -80.2630 200° South 211 243 1,800 -128 Descending FlightAware ADS-B
Tue 05:03:26 AM 26.1640 -80.2620 178° South 196 226 1,800 -286 Level FlightAware ADS-B
Tue 05:03:52 AM 26.1410 -80.2580 171° South 180 207 1,500 -409 Descending FlightAware ADS-B
Tue 05:04:10 AM 26.1280 -80.2560 172° South 182 209 1,500  Level FlightAware ADS-B
Tue 05:04:27 AM 26.1110 -80.2520 168° South 184 212 1,500 -162 Level FlightAware ADS-B
Tue 05:04:47 AM 26.0930 -80.2450 161° South 176 203 1,400 -333 Descending FlightAware ADS-B
Tue 05:05:03 AM 26.0840 -80.2370 141° Southeast 146 168 1,300 -686 Descending FlightAware ADS-B
Tue 05:05:22 AM 26.0790 -80.2260 117° Southeast 130 150 1,000 -857 Descending FlightAware ADS-B
Tue 05:05:38 AM 26.0770 -80.2160 103° East 124 143 800 -533 Descending FlightAware ADS-B
Tue 05:06:07 AM 26.0770 -80.1990 90° East 121 139 600 -545 Descending FlightAware ADS-B
Tue 05:06:33 AM 26.0770 -80.1840 90° East 121 139 300 -652 Descending FlightAware ADS-B
Tue 05:06:53 AM 26.0770 -80.1690 90° East 125 144 100 -250 Descending FlightAware ADS-B
Tue 05:07:21 AM 26.0770 -80.1530 90° East 125 144 100  Level FlightAware ADS-B
Tue 05:14:00 AM 26.0667 -80.1500 103° East  Level FlightAware Approximate
Tue 05:15:00 AM 26.0726 -80.1527 103° East  Level Estimated

Login

Don't have an account? Register now (free) for customized features, flight alerts, and more!